sensor_id;sensor_type;location;lat;lon;timestamp;P1;durP1;ratioP1;P2;durP2;ratioP2
75340;SDS011;64931;47.562;18.920;2023-06-01T00:01:05;10.40;;;5.00;;
75340;SDS011;64931;47.562;18.920;2023-06-01T00:03:30;8.50;;;5.10;;
75340;SDS011;64931;47.562;18.920;2023-06-01T00:05:56;10.20;;;5.10;;
75340;SDS011;64931;47.562;18.920;2023-06-01T00:08:21;7.40;;;5.30;;
75340;SDS011;64931;47.562;18.920;2023-06-01T00:10:48;8.30;;;4.70;;
75340;SDS011;64931;47.562;18.920;2023-06-01T00:13:14;8.70;;;4.70;;
75340;SDS011;64931;47.562;18.920;2023-06-01T00:15:40;8.50;;;5.00;;
75340;SDS011;64931;47.562;18.920;2023-06-01T00:18:05;7.50;;;4.40;;
75340;SDS011;64931;47.562;18.920;2023-06-01T00:20:30;8.50;;;4.70;;
75340;SDS011;64931;47.562;18.920;2023-06-01T00:22:57;9.30;;;4.50;;
75340;SDS011;64931;47.562;18.920;2023-06-01T00:25:24;8.70;;;5.20;;
75340;SDS011;64931;47.562;18.920;2023-06-01T00:27:50;7.90;;;5.30;;
75340;SDS011;64931;47.562;18.920;2023-06-01T00:30:15;7.90;;;4.80;;
75340;SDS011;64931;47.562;18.920;2023-06-01T00:32:41;7.10;;;4.70;;
75340;SDS011;64931;47.562;18.920;2023-06-01T00:35:06;7.00;;;4.60;;
75340;SDS011;64931;47.562;18.920;2023-06-01T00:37:32;9.60;;;4.40;;
75340;SDS011;64931;47.562;18.920;2023-06-01T00:39:57;8.70;;;4.50;;
75340;SDS011;64931;47.562;18.920;2023-06-01T00:42:23;7.60;;;4.00;;
75340;SDS011;64931;47.562;18.920;2023-06-01T00:44:48;5.50;;;3.70;;
75340;SDS011;64931;47.562;18.920;2023-06-01T00:47:14;7.80;;;4.50;;
75340;SDS011;64931;47.562;18.920;2023-06-01T00:49:40;8.50;;;4.90;;
75340;SDS011;64931;47.562;18.920;2023-06-01T00:52:05;9.20;;;4.90;;
75340;SDS011;64931;47.562;18.920;2023-06-01T00:54:31;7.70;;;4.80;;
75340;SDS011;64931;47.562;18.920;2023-06-01T00:56:56;7.00;;;4.70;;
75340;SDS011;64931;47.562;18.920;2023-06-01T00:59:22;7.90;;;5.40;;
75340;SDS011;64931;47.562;18.920;2023-06-01T01:01:47;7.40;;;4.90;;
75340;SDS011;64931;47.562;18.920;2023-06-01T01:04:13;8.60;;;4.70;;
75340;SDS011;64931;47.562;18.920;2023-06-01T01:12:00;8.10;;;4.60;;
75340;SDS011;64931;47.562;18.920;2023-06-01T01:14:33;7.60;;;4.70;;
75340;SDS011;64931;47.562;18.920;2023-06-01T01:17:18;7.00;;;4.20;;
75340;SDS011;64931;47.562;18.920;2023-06-01T01:19:52;10.60;;;4.50;;
75340;SDS011;64931;47.562;18.920;2023-06-01T01:22:43;7.20;;;4.30;;
75340;SDS011;64931;47.562;18.920;2023-06-01T01:28:06;7.70;;;4.20;;
75340;SDS011;64931;47.562;18.920;2023-06-01T01:30:36;6.50;;;4.40;;
75340;SDS011;64931;47.562;18.920;2023-06-01T01:33:03;7.90;;;4.10;;
75340;SDS011;64931;47.562;18.920;2023-06-01T01:35:29;7.70;;;4.10;;
75340;SDS011;64931;47.562;18.920;2023-06-01T01:37:56;7.20;;;4.20;;
75340;SDS011;64931;47.562;18.920;2023-06-01T01:40:21;7.00;;;4.10;;
75340;SDS011;64931;47.562;18.920;2023-06-01T01:42:47;8.10;;;4.20;;
75340;SDS011;64931;47.562;18.920;2023-06-01T01:45:14;7.40;;;4.20;;
75340;SDS011;64931;47.562;18.920;2023-06-01T01:50:06;8.00;;;4.70;;
75340;SDS011;64931;47.562;18.920;2023-06-01T01:52:37;8.90;;;4.30;;
75340;SDS011;64931;47.562;18.920;2023-06-01T01:55:04;7.60;;;4.20;;
75340;SDS011;64931;47.562;18.920;2023-06-01T01:57:32;8.50;;;4.10;;
75340;SDS011;64931;47.562;18.920;2023-06-01T01:59:59;7.10;;;4.40;;
75340;SDS011;64931;47.562;18.920;2023-06-01T02:02:26;8.50;;;4.00;;
75340;SDS011;64931;47.562;18.920;2023-06-01T02:04:52;7.00;;;4.00;;
75340;SDS011;64931;47.562;18.920;2023-06-01T02:07:17;7.90;;;4.00;;
75340;SDS011;64931;47.562;18.920;2023-06-01T02:09:43;8.80;;;4.10;;
75340;SDS011;64931;47.562;18.920;2023-06-01T02:12:08;7.70;;;4.00;;
75340;SDS011;64931;47.562;18.920;2023-06-01T02:14:34;7.30;;;4.00;;
75340;SDS011;64931;47.562;18.920;2023-06-01T02:16:59;8.70;;;4.00;;
75340;SDS011;64931;47.562;18.920;2023-06-01T02:19:26;8.20;;;3.80;;
75340;SDS011;64931;47.562;18.920;2023-06-01T02:21:52;7.10;;;3.80;;
75340;SDS011;64931;47.562;18.920;2023-06-01T02:24:17;6.70;;;3.40;;
75340;SDS011;64931;47.562;18.920;2023-06-01T02:26:43;9.10;;;3.80;;
75340;SDS011;64931;47.562;18.920;2023-06-01T02:29:09;9.20;;;4.10;;
75340;SDS011;64931;47.562;18.920;2023-06-01T02:31:34;6.90;;;3.80;;
75340;SDS011;64931;47.562;18.920;2023-06-01T02:34:00;8.90;;;3.90;;
75340;SDS011;64931;47.562;18.920;2023-06-01T02:36:26;6.70;;;4.00;;
75340;SDS011;64931;47.562;18.920;2023-06-01T02:38:54;11.10;;;3.90;;
75340;SDS011;64931;47.562;18.920;2023-06-01T02:41:20;6.80;;;3.80;;
75340;SDS011;64931;47.562;18.920;2023-06-01T02:43:46;8.40;;;4.00;;
75340;SDS011;64931;47.562;18.920;2023-06-01T02:46:12;7.10;;;4.00;;
75340;SDS011;64931;47.562;18.920;2023-06-01T02:48:37;7.40;;;4.20;;
75340;SDS011;64931;47.562;18.920;2023-06-01T02:51:03;7.10;;;3.60;;
75340;SDS011;64931;47.562;18.920;2023-06-01T02:53:28;9.60;;;4.20;;
75340;SDS011;64931;47.562;18.920;2023-06-01T02:55:54;10.50;;;3.60;;
75340;SDS011;64931;47.562;18.920;2023-06-01T02:58:19;7.90;;;3.80;;
75340;SDS011;64931;47.562;18.920;2023-06-01T03:00:45;6.00;;;3.70;;
75340;SDS011;64931;47.562;18.920;2023-06-01T03:03:12;7.90;;;3.50;;
75340;SDS011;64931;47.562;18.920;2023-06-01T03:05:37;7.30;;;3.90;;
75340;SDS011;64931;47.562;18.920;2023-06-01T03:08:03;7.40;;;3.70;;
75340;SDS011;64931;47.562;18.920;2023-06-01T03:10:31;6.70;;;3.50;;
75340;SDS011;64931;47.562;18.920;2023-06-01T03:12:56;8.80;;;4.00;;
75340;SDS011;64931;47.562;18.920;2023-06-01T03:15:22;7.50;;;3.60;;
75340;SDS011;64931;47.562;18.920;2023-06-01T03:17:47;7.80;;;3.40;;
75340;SDS011;64931;47.562;18.920;2023-06-01T03:20:13;10.50;;;4.20;;
75340;SDS011;64931;47.562;18.920;2023-06-01T03:22:42;6.30;;;3.30;;
75340;SDS011;64931;47.562;18.920;2023-06-01T03:25:07;6.40;;;3.70;;
75340;SDS011;64931;47.562;18.920;2023-06-01T03:27:33;8.90;;;4.30;;
75340;SDS011;64931;47.562;18.920;2023-06-01T03:29:59;7.50;;;4.00;;
75340;SDS011;64931;47.562;18.920;2023-06-01T03:32:26;12.80;;;4.40;;
75340;SDS011;64931;47.562;18.920;2023-06-01T03:34:52;6.10;;;4.00;;
75340;SDS011;64931;47.562;18.920;2023-06-01T03:37:17;6.80;;;3.90;;
75340;SDS011;64931;47.562;18.920;2023-06-01T03:39:43;7.60;;;4.20;;
75340;SDS011;64931;47.562;18.920;2023-06-01T03:42:08;7.30;;;3.80;;
75340;SDS011;64931;47.562;18.920;2023-06-01T03:44:34;10.00;;;4.10;;
75340;SDS011;64931;47.562;18.920;2023-06-01T03:47:00;6.70;;;3.70;;
75340;SDS011;64931;47.562;18.920;2023-06-01T03:49:26;8.50;;;3.70;;
75340;SDS011;64931;47.562;18.920;2023-06-01T03:51:51;7.30;;;3.50;;
75340;SDS011;64931;47.562;18.920;2023-06-01T03:54:16;7.90;;;3.80;;
75340;SDS011;64931;47.562;18.920;2023-06-01T03:56:42;6.90;;;3.50;;
75340;SDS011;64931;47.562;18.920;2023-06-01T03:59:07;10.90;;;3.80;;
75340;SDS011;64931;47.562;18.920;2023-06-01T04:01:35;7.40;;;3.80;;
75340;SDS011;64931;47.562;18.920;2023-06-01T04:04:04;6.50;;;3.60;;
75340;SDS011;64931;47.562;18.920;2023-06-01T04:06:33;9.60;;;4.40;;
75340;SDS011;64931;47.562;18.920;2023-06-01T04:09:03;10.80;;;4.10;;
75340;SDS011;64931;47.562;18.920;2023-06-01T04:11:33;7.70;;;4.20;;
75340;SDS011;64931;47.562;18.920;2023-06-01T04:13:58;7.70;;;3.60;;
75340;SDS011;64931;47.562;18.920;2023-06-01T04:16:24;6.90;;;3.60;;
75340;SDS011;64931;47.562;18.920;2023-06-01T04:18:50;7.10;;;3.40;;
75340;SDS011;64931;47.562;18.920;2023-06-01T04:21:16;6.90;;;3.90;;
75340;SDS011;64931;47.562;18.920;2023-06-01T04:23:42;7.30;;;4.00;;
75340;SDS011;64931;47.562;18.920;2023-06-01T04:26:08;9.20;;;4.00;;
75340;SDS011;64931;47.562;18.920;2023-06-01T04:28:33;8.20;;;4.20;;
75340;SDS011;64931;47.562;18.920;2023-06-01T04:31:00;6.70;;;3.80;;
75340;SDS011;64931;47.562;18.920;2023-06-01T04:33:27;6.30;;;3.40;;
75340;SDS011;64931;47.562;18.920;2023-06-01T04:35:53;9.70;;;3.80;;
75340;SDS011;64931;47.562;18.920;2023-06-01T04:38:21;7.60;;;3.80;;
75340;SDS011;64931;47.562;18.920;2023-06-01T04:40:50;10.50;;;3.70;;
75340;SDS011;64931;47.562;18.920;2023-06-01T04:43:18;6.40;;;3.60;;
75340;SDS011;64931;47.562;18.920;2023-06-01T04:45:45;9.10;;;3.90;;
75340;SDS011;64931;47.562;18.920;2023-06-01T04:48:10;6.80;;;3.70;;
75340;SDS011;64931;47.562;18.920;2023-06-01T04:50:36;8.50;;;4.30;;
75340;SDS011;64931;47.562;18.920;2023-06-01T04:53:02;7.20;;;3.50;;
75340;SDS011;64931;47.562;18.920;2023-06-01T04:55:30;8.30;;;3.60;;
75340;SDS011;64931;47.562;18.920;2023-06-01T04:57:56;7.20;;;3.30;;
75340;SDS011;64931;47.562;18.920;2023-06-01T05:00:22;7.00;;;3.30;;
75340;SDS011;64931;47.562;18.920;2023-06-01T05:02:48;7.80;;;3.20;;
75340;SDS011;64931;47.562;18.920;2023-06-01T05:05:14;8.20;;;3.30;;
75340;SDS011;64931;47.562;18.920;2023-06-01T05:07:40;8.70;;;3.30;;
75340;SDS011;64931;47.562;18.920;2023-06-01T05:10:07;7.20;;;3.60;;
75340;SDS011;64931;47.562;18.920;2023-06-01T05:12:34;7.60;;;3.50;;
75340;SDS011;64931;47.562;18.920;2023-06-01T05:15:03;7.80;;;3.30;;
75340;SDS011;64931;47.562;18.920;2023-06-01T05:17:30;8.90;;;3.30;;
75340;SDS011;64931;47.562;18.920;2023-06-01T05:19:56;7.90;;;3.70;;
75340;SDS011;64931;47.562;18.920;2023-06-01T05:22:22;8.70;;;3.50;;
75340;SDS011;64931;47.562;18.920;2023-06-01T05:24:48;6.80;;;3.60;;
75340;SDS011;64931;47.562;18.920;2023-06-01T05:27:14;5.50;;;3.30;;
75340;SDS011;64931;47.562;18.920;2023-06-01T05:29:40;7.00;;;3.40;;
75340;SDS011;64931;47.562;18.920;2023-06-01T05:32:06;5.70;;;3.10;;
75340;SDS011;64931;47.562;18.920;2023-06-01T05:34:32;10.30;;;3.20;;
75340;SDS011;64931;47.562;18.920;2023-06-01T05:36:57;6.70;;;3.20;;
75340;SDS011;64931;47.562;18.920;2023-06-01T05:39:22;6.90;;;3.10;;
75340;SDS011;64931;47.562;18.920;2023-06-01T05:41:52;6.00;;;3.10;;
75340;SDS011;64931;47.562;18.920;2023-06-01T05:44:18;6.60;;;3.20;;
75340;SDS011;64931;47.562;18.920;2023-06-01T05:46:44;6.30;;;3.10;;
75340;SDS011;64931;47.562;18.920;2023-06-01T05:49:10;7.90;;;3.00;;
75340;SDS011;64931;47.562;18.920;2023-06-01T05:51:35;8.20;;;3.00;;
75340;SDS011;64931;47.562;18.920;2023-06-01T05:54:03;7.40;;;3.20;;
75340;SDS011;64931;47.562;18.920;2023-06-01T05:56:29;6.90;;;3.30;;
75340;SDS011;64931;47.562;18.920;2023-06-01T05:58:55;6.70;;;3.30;;
75340;SDS011;64931;47.562;18.920;2023-06-01T06:01:21;8.90;;;3.20;;
75340;SDS011;64931;47.562;18.920;2023-06-01T06:03:47;6.30;;;3.10;;
75340;SDS011;64931;47.562;18.920;2023-06-01T06:06:12;5.40;;;3.00;;
75340;SDS011;64931;47.562;18.920;2023-06-01T06:08:38;8.00;;;2.90;;
75340;SDS011;64931;47.562;18.920;2023-06-01T06:11:03;7.80;;;3.10;;
75340;SDS011;64931;47.562;18.920;2023-06-01T06:13:29;8.70;;;3.00;;
75340;SDS011;64931;47.562;18.920;2023-06-01T06:15:54;6.20;;;2.80;;
75340;SDS011;64931;47.562;18.920;2023-06-01T06:18:21;8.70;;;3.30;;
75340;SDS011;64931;47.562;18.920;2023-06-01T06:20:46;8.20;;;3.30;;
75340;SDS011;64931;47.562;18.920;2023-06-01T06:23:12;7.50;;;3.10;;
75340;SDS011;64931;47.562;18.920;2023-06-01T06:25:38;10.20;;;3.00;;
75340;SDS011;64931;47.562;18.920;2023-06-01T06:28:05;10.10;;;3.60;;
75340;SDS011;64931;47.562;18.920;2023-06-01T06:30:31;5.90;;;3.30;;
75340;SDS011;64931;47.562;18.920;2023-06-01T06:32:56;7.80;;;3.30;;
75340;SDS011;64931;47.562;18.920;2023-06-01T06:35:21;6.80;;;3.10;;
75340;SDS011;64931;47.562;18.920;2023-06-01T06:37:47;5.80;;;2.80;;
75340;SDS011;64931;47.562;18.920;2023-06-01T06:40:12;9.00;;;3.10;;
75340;SDS011;64931;47.562;18.920;2023-06-01T06:42:38;6.60;;;3.30;;
75340;SDS011;64931;47.562;18.920;2023-06-01T06:45:03;6.00;;;2.90;;
75340;SDS011;64931;47.562;18.920;2023-06-01T06:47:30;7.00;;;3.20;;
75340;SDS011;64931;47.562;18.920;2023-06-01T06:49:56;7.10;;;3.10;;
75340;SDS011;64931;47.562;18.920;2023-06-01T06:52:22;6.10;;;2.70;;
75340;SDS011;64931;47.562;18.920;2023-06-01T06:54:47;6.90;;;2.90;;
75340;SDS011;64931;47.562;18.920;2023-06-01T06:57:13;8.20;;;3.10;;
75340;SDS011;64931;47.562;18.920;2023-06-01T06:59:38;6.60;;;2.90;;
75340;SDS011;64931;47.562;18.920;2023-06-01T07:02:04;6.10;;;3.10;;
75340;SDS011;64931;47.562;18.920;2023-06-01T07:04:29;5.20;;;2.90;;
75340;SDS011;64931;47.562;18.920;2023-06-01T07:06:55;9.20;;;3.20;;
75340;SDS011;64931;47.562;18.920;2023-06-01T07:09:21;7.40;;;3.60;;
75340;SDS011;64931;47.562;18.920;2023-06-01T07:11:46;8.10;;;3.10;;
75340;SDS011;64931;47.562;18.920;2023-06-01T07:14:13;5.80;;;3.00;;
75340;SDS011;64931;47.562;18.920;2023-06-01T07:16:39;6.80;;;2.90;;
75340;SDS011;64931;47.562;18.920;2023-06-01T07:19:06;8.10;;;3.30;;
75340;SDS011;64931;47.562;18.920;2023-06-01T07:21:32;5.50;;;3.00;;
75340;SDS011;64931;47.562;18.920;2023-06-01T07:23:58;6.80;;;3.00;;
75340;SDS011;64931;47.562;18.920;2023-06-01T07:26:23;7.50;;;2.90;;
75340;SDS011;64931;47.562;18.920;2023-06-01T07:31:19;7.30;;;3.30;;
75340;SDS011;64931;47.562;18.920;2023-06-01T07:33:45;6.60;;;3.20;;
75340;SDS011;64931;47.562;18.920;2023-06-01T07:36:10;6.10;;;3.00;;
75340;SDS011;64931;47.562;18.920;2023-06-01T07:38:37;6.70;;;3.20;;
75340;SDS011;64931;47.562;18.920;2023-06-01T07:41:02;7.80;;;3.50;;
75340;SDS011;64931;47.562;18.920;2023-06-01T07:43:28;7.00;;;3.10;;
75340;SDS011;64931;47.562;18.920;2023-06-01T07:45:54;6.80;;;3.20;;
75340;SDS011;64931;47.562;18.920;2023-06-01T07:48:20;7.60;;;3.00;;
75340;SDS011;64931;47.562;18.920;2023-06-01T07:50:45;7.20;;;3.00;;
75340;SDS011;64931;47.562;18.920;2023-06-01T07:53:11;6.10;;;3.00;;
75340;SDS011;64931;47.562;18.920;2023-06-01T07:55:37;6.70;;;2.90;;
75340;SDS011;64931;47.562;18.920;2023-06-01T07:58:02;9.60;;;3.30;;
75340;SDS011;64931;47.562;18.920;2023-06-01T08:00:29;6.10;;;3.00;;
75340;SDS011;64931;47.562;18.920;2023-06-01T08:02:54;12.00;;;3.10;;
75340;SDS011;64931;47.562;18.920;2023-06-01T08:05:20;5.70;;;2.80;;
75340;SDS011;64931;47.562;18.920;2023-06-01T08:07:47;7.60;;;3.10;;
75340;SDS011;64931;47.562;18.920;2023-06-01T08:10:12;9.80;;;3.20;;
75340;SDS011;64931;47.562;18.920;2023-06-01T08:12:41;8.60;;;3.20;;
75340;SDS011;64931;47.562;18.920;2023-06-01T08:15:08;7.10;;;2.90;;
75340;SDS011;64931;47.562;18.920;2023-06-01T08:17:36;6.10;;;3.10;;
75340;SDS011;64931;47.562;18.920;2023-06-01T08:20:02;6.40;;;3.40;;
75340;SDS011;64931;47.562;18.920;2023-06-01T08:22:33;8.00;;;3.50;;
75340;SDS011;64931;47.562;18.920;2023-06-01T08:24:58;6.60;;;2.90;;
75340;SDS011;64931;47.562;18.920;2023-06-01T08:27:24;7.80;;;3.40;;
75340;SDS011;64931;47.562;18.920;2023-06-01T08:29:50;8.50;;;3.40;;
75340;SDS011;64931;47.562;18.920;2023-06-01T08:32:16;7.00;;;3.10;;
75340;SDS011;64931;47.562;18.920;2023-06-01T08:34:43;6.80;;;3.20;;
75340;SDS011;64931;47.562;18.920;2023-06-01T08:37:08;6.00;;;3.60;;
75340;SDS011;64931;47.562;18.920;2023-06-01T08:39:34;6.00;;;3.30;;
75340;SDS011;64931;47.562;18.920;2023-06-01T08:42:06;6.20;;;3.30;;
75340;SDS011;64931;47.562;18.920;2023-06-01T08:44:40;9.30;;;3.70;;
75340;SDS011;64931;47.562;18.920;2023-06-01T08:47:06;7.90;;;3.40;;
75340;SDS011;64931;47.562;18.920;2023-06-01T08:49:33;6.60;;;3.90;;
75340;SDS011;64931;47.562;18.920;2023-06-01T08:52:00;7.30;;;3.40;;
75340;SDS011;64931;47.562;18.920;2023-06-01T08:54:27;5.50;;;3.50;;
75340;SDS011;64931;47.562;18.920;2023-06-01T08:56:57;5.10;;;3.00;;
75340;SDS011;64931;47.562;18.920;2023-06-01T08:59:24;8.70;;;3.60;;
75340;SDS011;64931;47.562;18.920;2023-06-01T09:01:50;8.00;;;3.80;;
75340;SDS011;64931;47.562;18.920;2023-06-01T09:04:16;6.50;;;3.60;;
75340;SDS011;64931;47.562;18.920;2023-06-01T09:06:42;6.80;;;3.70;;
75340;SDS011;64931;47.562;18.920;2023-06-01T09:09:08;9.10;;;3.90;;
75340;SDS011;64931;47.562;18.920;2023-06-01T09:11:36;8.50;;;3.80;;
75340;SDS011;64931;47.562;18.920;2023-06-01T09:14:02;7.20;;;3.80;;
75340;SDS011;64931;47.562;18.920;2023-06-01T09:16:46;6.70;;;3.70;;
75340;SDS011;64931;47.562;18.920;2023-06-01T09:19:11;10.90;;;3.70;;
75340;SDS011;64931;47.562;18.920;2023-06-01T09:21:36;5.70;;;3.60;;
75340;SDS011;64931;47.562;18.920;2023-06-01T09:24:18;9.00;;;3.80;;
75340;SDS011;64931;47.562;18.920;2023-06-01T09:26:50;7.10;;;3.60;;
75340;SDS011;64931;47.562;18.920;2023-06-01T09:29:16;6.40;;;3.50;;
75340;SDS011;64931;47.562;18.920;2023-06-01T09:34:10;9.90;;;3.60;;
75340;SDS011;64931;47.562;18.920;2023-06-01T09:36:40;8.20;;;3.90;;
75340;SDS011;64931;47.562;18.920;2023-06-01T09:39:10;5.80;;;3.30;;
75340;SDS011;64931;47.562;18.920;2023-06-01T09:44:13;7.10;;;3.50;;
75340;SDS011;64931;47.562;18.920;2023-06-01T09:46:49;10.80;;;3.80;;
75340;SDS011;64931;47.562;18.920;2023-06-01T09:49:23;9.70;;;3.60;;
75340;SDS011;64931;47.562;18.920;2023-06-01T09:51:51;7.00;;;3.80;;
75340;SDS011;64931;47.562;18.920;2023-06-01T09:54:27;10.30;;;4.40;;
75340;SDS011;64931;47.562;18.920;2023-06-01T09:56:54;6.50;;;3.90;;
75340;SDS011;64931;47.562;18.920;2023-06-01T09:59:20;9.30;;;3.80;;
75340;SDS011;64931;47.562;18.920;2023-06-01T10:01:57;8.70;;;4.20;;
75340;SDS011;64931;47.562;18.920;2023-06-01T10:04:23;8.40;;;4.00;;
75340;SDS011;64931;47.562;18.920;2023-06-01T10:06:56;9.20;;;4.20;;
75340;SDS011;64931;47.562;18.920;2023-06-01T10:09:23;8.10;;;3.70;;
75340;SDS011;64931;47.562;18.920;2023-06-01T10:11:50;9.30;;;4.00;;
75340;SDS011;64931;47.562;18.920;2023-06-01T10:14:20;7.00;;;4.00;;
75340;SDS011;64931;47.562;18.920;2023-06-01T10:16:50;8.10;;;3.60;;
75340;SDS011;64931;47.562;18.920;2023-06-01T10:19:18;6.60;;;3.80;;
75340;SDS011;64931;47.562;18.920;2023-06-01T10:24:13;5.90;;;3.10;;
75340;SDS011;64931;47.562;18.920;2023-06-01T10:29:20;6.80;;;4.40;;
75340;SDS011;64931;47.562;18.920;2023-06-01T10:31:45;8.60;;;4.30;;
75340;SDS011;64931;47.562;18.920;2023-06-01T10:34:12;7.80;;;4.30;;
75340;SDS011;64931;47.562;18.920;2023-06-01T10:41:51;6.00;;;3.90;;
75340;SDS011;64931;47.562;18.920;2023-06-01T10:44:50;6.90;;;4.30;;
75340;SDS011;64931;47.562;18.920;2023-06-01T10:54:56;8.30;;;4.80;;
75340;SDS011;64931;47.562;18.920;2023-06-01T10:57:45;8.20;;;4.10;;
75340;SDS011;64931;47.562;18.920;2023-06-01T11:13:15;6.50;;;4.30;;
75340;SDS011;64931;47.562;18.920;2023-06-01T11:21:05;9.60;;;4.70;;
75340;SDS011;64931;47.562;18.920;2023-06-01T11:23:31;8.60;;;4.60;;
75340;SDS011;64931;47.562;18.920;2023-06-01T11:25:57;7.70;;;4.20;;
75340;SDS011;64931;47.562;18.920;2023-06-01T11:28:23;8.10;;;4.40;;
75340;SDS011;64931;47.562;18.920;2023-06-01T11:30:49;6.00;;;3.90;;
75340;SDS011;64931;47.562;18.920;2023-06-01T11:33:16;9.00;;;4.60;;
75340;SDS011;64931;47.562;18.920;2023-06-01T11:35:42;8.60;;;4.10;;
75340;SDS011;64931;47.562;18.920;2023-06-01T11:38:07;7.00;;;4.20;;
75340;SDS011;64931;47.562;18.920;2023-06-01T11:40:32;7.70;;;4.20;;
75340;SDS011;64931;47.562;18.920;2023-06-01T11:42:58;7.70;;;4.20;;
75340;SDS011;64931;47.562;18.920;2023-06-01T11:45:23;10.30;;;5.00;;
75340;SDS011;64931;47.562;18.920;2023-06-01T11:47:51;7.70;;;4.60;;
75340;SDS011;64931;47.562;18.920;2023-06-01T11:50:21;7.20;;;4.70;;
75340;SDS011;64931;47.562;18.920;2023-06-01T11:52:49;7.70;;;4.10;;
75340;SDS011;64931;47.562;18.920;2023-06-01T11:55:14;7.80;;;4.30;;
75340;SDS011;64931;47.562;18.920;2023-06-01T11:57:40;7.40;;;4.30;;
75340;SDS011;64931;47.562;18.920;2023-06-01T12:00:10;8.30;;;4.40;;
75340;SDS011;64931;47.562;18.920;2023-06-01T12:02:39;8.50;;;4.50;;
75340;SDS011;64931;47.562;18.920;2023-06-01T12:05:08;6.70;;;4.00;;
75340;SDS011;64931;47.562;18.920;2023-06-01T12:07:47;7.40;;;4.40;;
75340;SDS011;64931;47.562;18.920;2023-06-01T12:10:16;8.50;;;4.60;;
75340;SDS011;64931;47.562;18.920;2023-06-01T12:12:42;7.20;;;4.60;;
75340;SDS011;64931;47.562;18.920;2023-06-01T12:15:11;7.40;;;4.60;;
75340;SDS011;64931;47.562;18.920;2023-06-01T12:18:12;7.40;;;4.30;;
75340;SDS011;64931;47.562;18.920;2023-06-01T12:20:34;7.60;;;4.50;;
75340;SDS011;64931;47.562;18.920;2023-06-01T12:23:01;9.30;;;5.00;;
75340;SDS011;64931;47.562;18.920;2023-06-01T12:25:56;11.70;;;4.40;;
75340;SDS011;64931;47.562;18.920;2023-06-01T12:28:25;7.60;;;4.40;;
75340;SDS011;64931;47.562;18.920;2023-06-01T12:33:36;5.80;;;4.20;;
75340;SDS011;64931;47.562;18.920;2023-06-01T12:36:02;6.70;;;4.40;;
75340;SDS011;64931;47.562;18.920;2023-06-01T12:38:34;7.30;;;4.60;;
75340;SDS011;64931;47.562;18.920;2023-06-01T12:41:14;12.40;;;4.40;;
75340;SDS011;64931;47.562;18.920;2023-06-01T12:43:46;7.80;;;4.30;;
75340;SDS011;64931;47.562;18.920;2023-06-01T12:48:48;6.60;;;4.50;;
75340;SDS011;64931;47.562;18.920;2023-06-01T12:51:14;8.30;;;4.20;;
75340;SDS011;64931;47.562;18.920;2023-06-01T12:53:40;6.50;;;4.40;;
75340;SDS011;64931;47.562;18.920;2023-06-01T12:56:10;9.10;;;4.90;;
75340;SDS011;64931;47.562;18.920;2023-06-01T12:58:36;7.00;;;4.20;;
75340;SDS011;64931;47.562;18.920;2023-06-01T13:01:02;7.80;;;4.30;;
75340;SDS011;64931;47.562;18.920;2023-06-01T13:03:28;7.40;;;4.10;;
75340;SDS011;64931;47.562;18.920;2023-06-01T13:05:53;9.10;;;4.60;;
75340;SDS011;64931;47.562;18.920;2023-06-01T13:08:19;8.60;;;4.50;;
75340;SDS011;64931;47.562;18.920;2023-06-01T13:10:45;7.50;;;5.00;;
75340;SDS011;64931;47.562;18.920;2023-06-01T13:13:11;6.20;;;4.20;;
75340;SDS011;64931;47.562;18.920;2023-06-01T13:15:40;11.00;;;4.70;;
75340;SDS011;64931;47.562;18.920;2023-06-01T13:18:06;9.90;;;4.60;;
75340;SDS011;64931;47.562;18.920;2023-06-01T13:20:32;7.10;;;4.60;;
75340;SDS011;64931;47.562;18.920;2023-06-01T13:22:57;9.70;;;4.60;;
75340;SDS011;64931;47.562;18.920;2023-06-01T13:25:23;7.20;;;4.60;;
75340;SDS011;64931;47.562;18.920;2023-06-01T13:27:49;6.90;;;4.70;;
75340;SDS011;64931;47.562;18.920;2023-06-01T13:30:15;7.50;;;4.40;;
75340;SDS011;64931;47.562;18.920;2023-06-01T13:32:42;7.50;;;4.30;;
75340;SDS011;64931;47.562;18.920;2023-06-01T13:35:07;7.10;;;4.10;;
75340;SDS011;64931;47.562;18.920;2023-06-01T13:37:33;7.90;;;4.80;;
75340;SDS011;64931;47.562;18.920;2023-06-01T13:40:01;6.10;;;4.50;;
75340;SDS011;64931;47.562;18.920;2023-06-01T13:42:27;7.80;;;4.70;;
75340;SDS011;64931;47.562;18.920;2023-06-01T13:44:53;7.50;;;4.70;;
75340;SDS011;64931;47.562;18.920;2023-06-01T13:47:19;8.30;;;4.60;;
75340;SDS011;64931;47.562;18.920;2023-06-01T13:49:45;8.60;;;4.60;;
75340;SDS011;64931;47.562;18.920;2023-06-01T13:52:11;6.50;;;4.50;;
75340;SDS011;64931;47.562;18.920;2023-06-01T13:54:37;9.10;;;4.60;;
75340;SDS011;64931;47.562;18.920;2023-06-01T13:57:03;7.80;;;4.60;;
75340;SDS011;64931;47.562;18.920;2023-06-01T13:59:30;6.90;;;4.60;;
75340;SDS011;64931;47.562;18.920;2023-06-01T14:01:57;8.60;;;4.50;;
75340;SDS011;64931;47.562;18.920;2023-06-01T14:04:22;7.60;;;4.70;;
75340;SDS011;64931;47.562;18.920;2023-06-01T14:06:48;7.30;;;4.80;;
75340;SDS011;64931;47.562;18.920;2023-06-01T14:09:15;7.40;;;4.30;;
75340;SDS011;64931;47.562;18.920;2023-06-01T14:11:41;8.90;;;5.20;;
75340;SDS011;64931;47.562;18.920;2023-06-01T14:14:06;6.70;;;4.90;;
75340;SDS011;64931;47.562;18.920;2023-06-01T14:16:32;10.00;;;5.30;;
75340;SDS011;64931;47.562;18.920;2023-06-01T14:18:57;7.20;;;4.30;;
75340;SDS011;64931;47.562;18.920;2023-06-01T14:21:23;8.60;;;5.20;;
75340;SDS011;64931;47.562;18.920;2023-06-01T14:23:49;7.60;;;5.00;;
75340;SDS011;64931;47.562;18.920;2023-06-01T14:26:14;9.60;;;4.80;;
75340;SDS011;64931;47.562;18.920;2023-06-01T14:28:40;10.00;;;5.00;;
75340;SDS011;64931;47.562;18.920;2023-06-01T14:31:05;8.10;;;4.40;;
75340;SDS011;64931;47.562;18.920;2023-06-01T14:33:31;8.60;;;4.80;;
75340;SDS011;64931;47.562;18.920;2023-06-01T14:35:56;8.80;;;4.70;;
75340;SDS011;64931;47.562;18.920;2023-06-01T14:38:22;6.60;;;4.80;;
75340;SDS011;64931;47.562;18.920;2023-06-01T14:40:47;7.30;;;5.10;;
75340;SDS011;64931;47.562;18.920;2023-06-01T14:43:12;8.50;;;4.80;;
75340;SDS011;64931;47.562;18.920;2023-06-01T14:45:38;9.80;;;4.80;;
75340;SDS011;64931;47.562;18.920;2023-06-01T14:48:03;7.80;;;4.80;;
75340;SDS011;64931;47.562;18.920;2023-06-01T14:50:28;8.10;;;5.10;;
75340;SDS011;64931;47.562;18.920;2023-06-01T14:52:54;6.70;;;4.80;;
75340;SDS011;64931;47.562;18.920;2023-06-01T14:55:24;7.20;;;4.80;;
75340;SDS011;64931;47.562;18.920;2023-06-01T14:57:50;11.10;;;4.90;;
75340;SDS011;64931;47.562;18.920;2023-06-01T15:00:16;7.10;;;4.70;;
75340;SDS011;64931;47.562;18.920;2023-06-01T15:02:43;7.80;;;4.90;;
75340;SDS011;64931;47.562;18.920;2023-06-01T15:05:10;6.50;;;4.70;;
75340;SDS011;64931;47.562;18.920;2023-06-01T15:07:36;8.70;;;5.00;;
75340;SDS011;64931;47.562;18.920;2023-06-01T15:10:02;7.70;;;5.10;;
75340;SDS011;64931;47.562;18.920;2023-06-01T15:12:27;9.60;;;4.80;;
75340;SDS011;64931;47.562;18.920;2023-06-01T15:14:53;8.10;;;5.00;;
75340;SDS011;64931;47.562;18.920;2023-06-01T15:17:18;10.00;;;5.10;;
75340;SDS011;64931;47.562;18.920;2023-06-01T15:19:44;6.90;;;5.10;;
75340;SDS011;64931;47.562;18.920;2023-06-01T15:22:10;8.50;;;5.20;;
75340;SDS011;64931;47.562;18.920;2023-06-01T15:24:36;9.20;;;5.10;;
75340;SDS011;64931;47.562;18.920;2023-06-01T15:27:02;6.70;;;4.90;;
75340;SDS011;64931;47.562;18.920;2023-06-01T15:29:27;7.70;;;4.90;;
75340;SDS011;64931;47.562;18.920;2023-06-01T15:31:53;11.50;;;4.70;;